Time,TemperatureF,DewpointF,PressureIn,WindDirection,WindDirectionDegrees,WindSpeedMPH,WindSpeedGustMPH,Humidity,HourlyPrecipIn,Conditions,Clouds,dailyrainin,SoftwareType,DateUTC
2015-04-26 00:01:00,39.6,35.8,29.77,NW,318,0.0,0.0,86,0.00,,,0.00,meteohub,2015-04-26 04:01:00,
2015-04-26 00:06:00,39.4,35.6,29.77,NW,318,0.0,0.0,86,0.00,,,0.00,meteohub,2015-04-26 04:06:00,
2015-04-26 00:11:00,39.0,35.2,29.76,NW,318,0.0,0.0,86,0.00,,,0.00,meteohub,2015-04-26 04:11:00,
2015-04-26 00:16:00,38.8,35.2,29.76,NW,318,0.0,0.0,87,0.00,,,0.00,meteohub,2015-04-26 04:16:00,
2015-04-26 00:21:00,38.7,35.1,29.76,NW,318,0.0,0.0,87,0.00,,,0.00,meteohub,2015-04-26 04:21:00,
2015-04-26 00:26:00,38.3,34.7,29.75,NW,318,0.0,0.0,87,0.00,,,0.00,meteohub,2015-04-26 04:26:00,
2015-04-26 00:32:00,38.1,34.9,29.75,NW,318,0.0,0.0,88,0.00,,,0.00,meteohub,2015-04-26 04:32:00,
2015-04-26 00:37:00,37.9,34.7,29.76,NW,318,0.0,0.0,88,0.00,,,0.00,meteohub,2015-04-26 04:37:00,
2015-04-26 00:42:00,37.8,34.5,29.75,NW,318,0.0,1.0,88,0.00,,,0.00,meteohub,2015-04-26 04:42:00,
2015-04-26 00:47:00,37.6,34.3,29.75,NW,318,0.0,1.0,88,0.00,,,0.00,meteohub,2015-04-26 04:47:00,
2015-04-26 00:52:00,37.4,34.2,29.76,NW,318,0.0,1.0,88,0.00,,,0.00,meteohub,2015-04-26 04:52:00,
2015-04-26 00:57:00,37.2,34.0,29.76,NW,318,0.0,0.0,88,0.00,,,0.00,meteohub,2015-04-26 04:57:00,
2015-04-26 01:02:00,37.0,33.8,29.75,NW,318,0.0,0.0,88,0.00,,,0.00,meteohub,2015-04-26 05:02:00,
2015-04-26 01:07:00,36.9,33.6,29.75,NW,318,0.0,0.0,88,0.00,,,0.00,meteohub,2015-04-26 05:07:00,
2015-04-26 01:12:00,36.5,33.3,29.76,NW,318,0.0,0.0,88,0.00,,,0.00,meteohub,2015-04-26 05:12:00,
2015-04-26 01:17:00,36.1,32.9,29.75,NW,318,0.0,0.0,88,0.00,,,0.00,meteohub,2015-04-26 05:17:00,
2015-04-26 01:23:00,36.0,32.7,29.75,NW,318,0.0,0.0,88,0.00,,,0.00,meteohub,2015-04-26 05:23:00,
2015-04-26 01:28:00,36.0,32.7,29.75,NW,318,0.0,0.0,88,0.00,,,0.00,meteohub,2015-04-26 05:28:00,
2015-04-26 01:33:00,35.6,32.4,29.75,NW,318,0.0,0.0,88,0.00,,,0.00,meteohub,2015-04-26 05:33:00,
2015-04-26 01:39:00,35.4,32.2,29.75,NW,318,0.0,0.0,88,0.00,,,0.00,meteohub,2015-04-26 05:39:00,
2015-04-26 01:44:00,35.2,32.4,29.75,NW,318,0.0,0.0,89,0.00,,,0.00,meteohub,2015-04-26 05:44:00,
2015-04-26 01:49:00,35.1,32.2,29.75,NW,318,0.0,0.0,89,0.00,,,0.00,meteohub,2015-04-26 05:49:00,
2015-04-26 01:54:00,34.9,31.6,29.75,NW,318,0.0,0.0,88,0.00,,,0.00,meteohub,2015-04-26 05:54:00,
2015-04-26 01:59:00,34.7,31.8,29.75,NW,318,0.0,0.0,89,0.00,,,0.00,meteohub,2015-04-26 05:59:00,
2015-04-26 02:04:00,34.5,31.6,29.75,NW,318,0.0,0.0,89,0.00,,,0.00,meteohub,2015-04-26 06:04:00,
2015-04-26 02:09:00,34.3,31.5,29.75,NW,318,0.0,0.0,89,0.00,,,0.00,meteohub,2015-04-26 06:09:00,
2015-04-26 02:14:00,34.2,31.3,29.75,NW,318,0.0,0.0,89,0.00,,,0.00,meteohub,2015-04-26 06:14:00,
2015-04-26 02:19:00,34.0,31.1,29.74,NW,318,0.0,0.0,89,0.00,,,0.00,meteohub,2015-04-26 06:19:00,
2015-04-26 02:24:00,33.6,30.7,29.74,NW,318,0.0,0.0,89,0.00,,,0.00,meteohub,2015-04-26 06:24:00,
2015-04-26 02:30:00,33.4,30.6,29.74,NW,318,0.0,0.0,89,0.00,,,0.00,meteohub,2015-04-26 06:30:00,
2015-04-26 02:35:00,33.3,30.4,29.73,NW,318,0.0,0.0,89,0.00,,,0.00,meteohub,2015-04-26 06:35:00,
2015-04-26 02:40:00,33.1,30.2,29.73,NW,318,0.0,0.0,89,0.00,,,0.00,meteohub,2015-04-26 06:40:00,
2015-04-26 02:45:00,33.1,30.2,29.73,NW,318,0.0,0.0,89,0.00,,,0.00,meteohub,2015-04-26 06:45:00,
2015-04-26 02:50:00,32.7,29.8,29.73,NW,318,0.0,0.0,89,0.00,,,0.00,meteohub,2015-04-26 06:50:00,
2015-04-26 02:55:00,32.5,29.7,29.73,NW,318,0.0,0.0,89,0.00,,,0.00,meteohub,2015-04-26 06:55:00,
2015-04-26 03:00:00,32.4,29.5,29.73,NW,318,0.0,0.0,89,0.00,,,0.00,meteohub,2015-04-26 07:00:00,
2015-04-26 03:05:00,32.5,30.0,29.73,NW,318,0.0,0.0,90,0.00,,,0.00,meteohub,2015-04-26 07:05:00,
2015-04-26 03:10:00,32.4,29.8,29.73,NW,318,0.0,0.0,90,0.00,,,0.00,meteohub,2015-04-26 07:10:00,
2015-04-26 03:15:00,32.4,29.8,29.73,NW,318,0.0,0.0,90,0.00,,,0.00,meteohub,2015-04-26 07:15:00,
2015-04-26 03:20:00,32.4,29.8,29.73,NW,318,0.0,0.0,90,0.00,,,0.00,meteohub,2015-04-26 07:20:00,
2015-04-26 03:26:00,32.2,29.7,29.73,NW,318,0.0,0.0,90,0.00,,,0.00,meteohub,2015-04-26 07:26:00,
2015-04-26 03:31:00,32.2,29.7,29.73,NW,318,0.0,0.0,90,0.00,,,0.00,meteohub,2015-04-26 07:31:00,
2015-04-26 03:36:00,32.4,29.8,29.73,NW,318,0.0,0.0,90,0.00,,,0.00,meteohub,2015-04-26 07:36:00,
2015-04-26 03:41:00,32.4,29.8,29.73,NW,318,0.0,0.0,90,0.00,,,0.00,meteohub,2015-04-26 07:41:00,
2015-04-26 03:46:00,32.4,29.8,29.73,NW,318,0.0,0.0,90,0.00,,,0.00,meteohub,2015-04-26 07:46:00,
2015-04-26 03:51:00,32.2,29.7,29.73,NW,318,0.0,0.0,90,0.00,,,0.00,meteohub,2015-04-26 07:51:00,
2015-04-26 03:56:00,32.2,29.7,29.73,NW,318,0.0,0.0,90,0.00,,,0.00,meteohub,2015-04-26 07:56:00,
2015-04-26 04:01:00,32.2,29.7,29.72,NW,318,0.0,0.0,90,0.00,,,0.00,meteohub,2015-04-26 08:01:00,
2015-04-26 04:06:00,32.2,29.7,29.72,NW,318,0.0,0.0,90,0.00,,,0.00,meteohub,2015-04-26 08:06:00,
2015-04-26 04:11:00,32.2,29.7,29.72,NW,318,0.0,0.0,90,0.00,,,0.00,meteohub,2015-04-26 08:11:00,
2015-04-26 04:17:00,32.2,29.7,29.72,NW,318,0.0,0.0,90,0.00,,,0.00,meteohub,2015-04-26 08:17:00,
2015-04-26 04:22:00,32.2,29.7,29.72,NW,318,0.0,0.0,90,0.00,,,0.00,meteohub,2015-04-26 08:22:00,
2015-04-26 04:27:00,32.2,29.7,29.72,NW,318,0.0,0.0,90,0.00,,,0.00,meteohub,2015-04-26 08:27:00,
2015-04-26 04:32:00,32.0,29.7,29.72,NW,318,0.0,0.0,91,0.00,,,0.00,meteohub,2015-04-26 08:32:00,
2015-04-26 04:37:00,32.0,29.7,29.72,NW,318,0.0,0.0,91,0.00,,,0.00,meteohub,2015-04-26 08:37:00,
2015-04-26 04:42:00,31.8,29.5,29.72,NW,318,0.0,0.0,91,0.00,,,0.00,meteohub,2015-04-26 08:42:00,
2015-04-26 04:47:00,31.6,29.3,29.72,NW,318,0.0,0.0,91,0.00,,,0.00,meteohub,2015-04-26 08:47:00,
2015-04-26 04:52:00,31.6,29.1,29.72,NW,318,0.0,0.0,90,0.00,,,0.00,meteohub,2015-04-26 08:52:00,
2015-04-26 04:57:00,31.6,29.1,29.72,NW,318,0.0,0.0,90,0.00,,,0.00,meteohub,2015-04-26 08:57:00,
2015-04-26 05:02:00,31.5,29.1,29.72,NW,318,0.0,0.0,91,0.00,,,0.00,meteohub,2015-04-26 09:02:00,
2015-04-26 05:07:00,31.3,28.9,29.72,NW,318,0.0,0.0,91,0.00,,,0.00,meteohub,2015-04-26 09:07:00,
2015-04-26 05:12:00,31.3,28.8,29.72,NW,318,0.0,0.0,90,0.00,,,0.00,meteohub,2015-04-26 09:12:00,
2015-04-26 05:17:00,31.3,28.9,29.72,NW,318,0.0,0.0,91,0.00,,,0.00,meteohub,2015-04-26 09:17:00,
2015-04-26 05:22:00,31.1,28.8,29.72,NW,318,0.0,0.0,91,0.00,,,0.00,meteohub,2015-04-26 09:22:00,
2015-04-26 05:27:00,30.7,28.4,29.72,NW,318,0.0,0.0,91,0.00,,,0.00,meteohub,2015-04-26 09:27:00,
2015-04-26 05:32:00,30.7,28.4,29.72,NW,318,0.0,0.0,91,0.00,,,0.00,meteohub,2015-04-26 09:32:00,
2015-04-26 05:37:00,30.6,28.2,29.72,NW,318,0.0,0.0,91,0.00,,,0.00,meteohub,2015-04-26 09:37:00,
2015-04-26 05:42:00,30.6,28.2,29.72,NW,318,0.0,0.0,91,0.00,,,0.00,meteohub,2015-04-26 09:42:00,
2015-04-26 05:47:00,30.6,28.2,29.73,NW,318,0.0,0.0,91,0.00,,,0.00,meteohub,2015-04-26 09:47:00,
2015-04-26 05:52:00,30.4,28.0,29.72,NW,318,0.0,0.0,91,0.00,,,0.00,meteohub,2015-04-26 09:52:00,
2015-04-26 05:57:00,30.2,27.9,29.73,NW,318,0.0,0.0,91,0.00,,,0.00,meteohub,2015-04-26 09:57:00,
2015-04-26 06:02:00,30.0,27.7,29.73,NW,318,0.0,0.0,91,0.00,,,0.00,meteohub,2015-04-26 10:02:00,
2015-04-26 06:07:00,30.0,27.7,29.73,NW,318,0.0,0.0,91,0.00,,,0.00,meteohub,2015-04-26 10:07:00,
2015-04-26 06:12:00,29.8,27.5,29.73,NW,318,0.0,0.0,91,0.00,,,0.00,meteohub,2015-04-26 10:12:00,
2015-04-26 06:17:00,29.8,27.5,29.73,NW,318,0.0,0.0,91,0.00,,,0.00,meteohub,2015-04-26 10:17:00,
2015-04-26 06:22:00,29.8,27.5,29.73,NW,318,0.0,0.0,91,0.00,,,0.00,meteohub,2015-04-26 10:22:00,
2015-04-26 06:27:00,30.0,27.7,29.73,NW,318,0.0,0.0,91,0.00,,,0.00,meteohub,2015-04-26 10:27:00,
2015-04-26 06:32:00,30.0,27.7,29.74,NW,318,0.0,0.0,91,0.00,,,0.00,meteohub,2015-04-26 10:32:00,
2015-04-26 06:37:00,30.4,28.0,29.73,NW,318,0.0,0.0,91,0.00,,,0.00,meteohub,2015-04-26 10:37:00,
2015-04-26 06:42:00,30.7,28.4,29.73,NW,318,0.0,0.0,91,0.00,,,0.00,meteohub,2015-04-26 10:42:00,
2015-04-26 06:47:00,30.9,28.6,29.74,NW,318,0.0,0.0,91,0.00,,,0.00,meteohub,2015-04-26 10:47:00,
2015-04-26 06:52:00,31.3,28.9,29.74,NW,318,0.0,0.0,91,0.00,,,0.00,meteohub,2015-04-26 10:52:00,
2015-04-26 06:57:00,31.6,29.3,29.74,NW,318,0.0,0.0,91,0.00,,,0.00,meteohub,2015-04-26 10:57:00,
2015-04-26 07:02:00,32.2,29.8,29.73,NW,318,0.0,0.0,91,0.00,,,0.00,meteohub,2015-04-26 11:02:00,
2015-04-26 07:07:00,32.7,30.4,29.73,NW,318,0.0,0.0,91,0.00,,,0.00,meteohub,2015-04-26 11:07:00,
2015-04-26 07:12:00,33.4,31.1,29.73,NW,318,0.0,0.0,91,0.00,,,0.00,meteohub,2015-04-26 11:12:00,
2015-04-26 07:17:00,34.9,32.7,29.73,NW,318,0.0,0.0,92,0.00,,,0.00,meteohub,2015-04-26 11:17:00,
2015-04-26 07:22:00,36.1,34.0,29.73,East,95,1.0,0.0,92,0.00,,,0.00,meteohub,2015-04-26 11:22:00,
2015-04-26 07:27:00,37.8,35.6,29.73,East,94,2.0,2.0,92,0.00,,,0.00,meteohub,2015-04-26 11:27:00,
2015-04-26 07:32:00,39.4,37.2,29.73,East,94,2.0,2.0,92,0.00,,,0.00,meteohub,2015-04-26 11:32:00,
2015-04-26 07:37:00,41.2,38.5,29.74,East,82,1.0,5.0,90,0.00,,,0.00,meteohub,2015-04-26 11:37:00,
2015-04-26 07:42:00,42.6,38.7,29.74,East,96,2.0,5.0,86,0.00,,,0.00,meteohub,2015-04-26 11:42:00,
2015-04-26 07:47:00,43.5,38.1,29.74,East,83,3.0,6.0,81,0.00,,,0.00,meteohub,2015-04-26 11:47:00,
2015-04-26 07:52:00,44.2,37.6,29.74,East,84,1.0,6.0,77,0.00,,,0.00,meteohub,2015-04-26 11:52:00,
2015-04-26 07:57:00,44.6,36.1,29.74,East,80,2.0,6.0,72,0.00,,,0.00,meteohub,2015-04-26 11:57:00,
2015-04-26 08:02:00,44.8,35.6,29.74,ESE,107,1.0,7.0,70,0.00,,,0.00,meteohub,2015-04-26 12:02:00,
2015-04-26 08:07:00,45.1,36.3,29.73,East,94,0.0,7.0,71,0.00,,,0.00,meteohub,2015-04-26 12:07:00,
2015-04-26 08:12:00,45.7,35.8,29.73,East,91,5.0,7.0,68,0.00,,,0.00,meteohub,2015-04-26 12:12:00,
2015-04-26 08:17:00,45.7,35.4,29.74,ESE,103,2.0,6.0,67,0.00,,,0.00,meteohub,2015-04-26 12:17:00,
2015-04-26 08:23:00,45.9,34.3,29.74,East,86,1.0,6.0,64,0.00,,,0.00,meteohub,2015-04-26 12:23:00,
2015-04-26 08:28:00,45.9,34.7,29.74,East,84,3.0,6.0,65,0.00,,,0.00,meteohub,2015-04-26 12:28:00,
2015-04-26 08:33:00,46.0,34.2,29.73,ENE,76,4.0,8.0,63,0.00,,,0.00,meteohub,2015-04-26 12:33:00,
2015-04-26 08:38:00,46.6,34.7,29.73,ENE,65,1.0,8.0,63,0.00,,,0.00,meteohub,2015-04-26 12:38:00,
2015-04-26 08:43:00,46.8,34.5,29.73,ENE,69,1.0,8.0,62,0.00,,,0.00,meteohub,2015-04-26 12:43:00,
2015-04-26 08:48:00,46.8,34.5,29.73,ESE,111,4.0,8.0,62,0.00,,,0.00,meteohub,2015-04-26 12:48:00,
2015-04-26 08:53:00,46.8,34.5,29.73,East,98,3.0,7.0,62,0.00,,,0.00,meteohub,2015-04-26 12:53:00,
2015-04-26 08:58:00,47.1,34.3,29.74,East,85,3.0,7.0,61,0.00,,,0.00,meteohub,2015-04-26 12:58:00,
2015-04-26 09:03:00,47.7,34.5,29.73,ENE,69,3.0,7.0,60,0.00,,,0.00,meteohub,2015-04-26 13:03:00,
2015-04-26 09:08:00,47.5,34.7,29.73,East,90,7.0,7.0,61,0.00,,,0.00,meteohub,2015-04-26 13:08:00,
2015-04-26 09:14:00,47.7,33.6,29.73,East,81,5.0,7.0,58,0.00,,,0.00,meteohub,2015-04-26 13:14:00,
2015-04-26 09:19:00,47.7,34.5,29.73,ESE,107,4.0,10.0,60,0.00,,,0.00,meteohub,2015-04-26 13:19:00,
2015-04-26 09:24:00,48.0,34.3,29.73,ENE,76,1.0,10.0,59,0.00,,,0.00,meteohub,2015-04-26 13:24:00,
2015-04-26 09:29:00,47.8,34.2,29.73,ENE,69,7.0,10.0,59,0.00,,,0.00,meteohub,2015-04-26 13:29:00,
2015-04-26 09:34:00,47.8,35.1,29.73,ESE,117,4.0,9.0,61,0.00,,,0.00,meteohub,2015-04-26 13:34:00,
2015-04-26 09:39:00,47.7,34.0,29.73,ESE,109,3.0,9.0,59,0.00,,,0.00,meteohub,2015-04-26 13:39:00,
2015-04-26 09:44:00,47.7,34.0,29.73,NE,55,1.0,9.0,59,0.00,,,0.00,meteohub,2015-04-26 13:44:00,
2015-04-26 09:49:00,48.0,34.0,29.73,NE,43,1.0,10.0,58,0.00,,,0.00,meteohub,2015-04-26 13:49:00,
2015-04-26 09:54:00,48.4,34.3,29.73,East,84,5.0,10.0,58,0.00,,,0.00,meteohub,2015-04-26 13:54:00,
2015-04-26 09:59:00,48.6,34.5,29.73,ENE,74,4.0,10.0,58,0.00,,,0.00,meteohub,2015-04-26 13:59:00,
2015-04-26 10:05:00,48.7,34.7,29.73,ENE,58,4.0,9.0,58,0.00,,,0.00,meteohub,2015-04-26 14:05:00,
2015-04-26 10:10:00,48.9,34.3,29.73,ENE,76,2.0,9.0,57,0.00,,,0.00,meteohub,2015-04-26 14:10:00,
2015-04-26 10:15:00,49.3,35.1,29.73,East,84,2.0,10.0,58,0.00,,,0.00,meteohub,2015-04-26 14:15:00,
2015-04-26 10:20:00,49.6,34.5,29.73,NNW,327,0.0,10.0,56,0.00,,,0.00,meteohub,2015-04-26 14:20:00,
2015-04-26 10:25:00,50.2,34.7,29.73,ENE,67,8.0,10.0,55,0.00,,,0.00,meteohub,2015-04-26 14:25:00,
2015-04-26 10:30:00,50.0,34.9,29.73,ENE,61,4.0,10.0,56,0.00,,,0.00,meteohub,2015-04-26 14:30:00,
2015-04-26 10:35:00,50.4,34.9,29.73,ENE,63,2.0,10.0,55,0.00,,,0.00,meteohub,2015-04-26 14:35:00,
2015-04-26 10:40:00,50.4,34.9,29.72,NE,45,0.0,9.0,55,0.00,,,0.00,meteohub,2015-04-26 14:40:00,
2015-04-26 10:45:00,50.4,34.9,29.72,ESE,116,5.0,9.0,55,0.00,,,0.00,meteohub,2015-04-26 14:45:00,
2015-04-26 10:50:00,49.8,35.2,29.71,ENE,67,4.0,9.0,57,0.00,,,0.00,meteohub,2015-04-26 14:50:00,
2015-04-26 10:55:00,50.7,35.1,29.72,West,271,0.0,9.0,55,0.00,,,0.00,meteohub,2015-04-26 14:55:00,
2015-04-26 11:01:00,51.3,34.7,29.72,ENE,65,3.0,9.0,53,0.00,,,0.00,meteohub,2015-04-26 15:01:00,
2015-04-26 11:06:00,51.4,35.4,29.72,ENE,78,5.0,9.0,54,0.00,,,0.00,meteohub,2015-04-26 15:06:00,
2015-04-26 11:11:00,50.9,34.9,29.72,ENE,76,4.0,10.0,54,0.00,,,0.00,meteohub,2015-04-26 15:11:00,
2015-04-26 11:16:00,51.3,35.6,29.72,ENE,65,4.0,10.0,55,0.00,,,0.00,meteohub,2015-04-26 15:16:00,
2015-04-26 11:21:00,51.3,35.6,29.72,ENE,70,5.0,9.0,55,0.00,,,0.00,meteohub,2015-04-26 15:21:00,
2015-04-26 11:26:00,51.3,35.6,29.72,East,94,5.0,9.0,55,0.00,,,0.00,meteohub,2015-04-26 15:26:00,
2015-04-26 11:31:00,51.1,35.4,29.72,ENE,77,12.0,12.0,55,0.00,,,0.00,meteohub,2015-04-26 15:31:00,
2015-04-26 11:36:00,50.4,35.8,29.71,SSE,162,3.0,12.0,57,0.00,,,0.00,meteohub,2015-04-26 15:36:00,
2015-04-26 11:41:00,51.1,35.4,29.72,ESE,112,4.0,12.0,55,0.00,,,0.00,meteohub,2015-04-26 15:41:00,
2015-04-26 11:46:00,50.4,35.8,29.72,ENE,70,3.0,12.0,57,0.00,,,0.00,meteohub,2015-04-26 15:46:00,
2015-04-26 11:52:00,50.2,35.6,29.72,SE,126,7.0,8.0,57,0.00,,,0.00,meteohub,2015-04-26 15:52:00,
2015-04-26 11:57:00,50.5,36.0,29.72,ENE,62,4.0,10.0,57,0.00,,,0.00,meteohub,2015-04-26 15:57:00,
2015-04-26 12:02:00,51.1,36.3,29.72,East,80,2.0,10.0,57,0.00,,,0.00,meteohub,2015-04-26 16:02:00,
2015-04-26 12:07:00,50.7,36.0,29.72,ESE,104,7.0,10.0,57,0.00,,,0.00,meteohub,2015-04-26 16:07:00,
2015-04-26 12:12:00,50.2,36.3,29.72,ENE,68,3.0,11.0,59,0.00,,,0.00,meteohub,2015-04-26 16:12:00,
2015-04-26 12:17:00,50.2,36.3,29.71,ENE,61,10.0,11.0,59,0.00,,,0.00,meteohub,2015-04-26 16:17:00,
2015-04-26 12:22:00,50.2,36.3,29.71,East,81,3.0,10.0,59,0.00,,,0.00,meteohub,2015-04-26 16:22:00,
2015-04-26 12:27:00,50.5,36.7,29.71,ENE,59,3.0,12.0,59,0.00,,,0.00,meteohub,2015-04-26 16:27:00,
2015-04-26 12:32:00,50.5,36.3,29.71,ESE,104,2.0,12.0,58,0.00,,,0.00,meteohub,2015-04-26 16:32:00,
2015-04-26 12:37:00,50.5,36.7,29.71,ENE,72,7.0,11.0,59,0.00,,,0.00,meteohub,2015-04-26 16:37:00,
2015-04-26 12:42:00,50.2,36.0,29.70,SE,124,6.0,11.0,58,0.00,,,0.00,meteohub,2015-04-26 16:42:00,
2015-04-26 12:47:00,50.4,36.1,29.70,East,93,7.0,10.0,58,0.00,,,0.00,meteohub,2015-04-26 16:47:00,
2015-04-26 12:52:00,50.4,37.0,29.70,ESE,108,7.0,12.0,60,0.00,,,0.00,meteohub,2015-04-26 16:52:00,
2015-04-26 12:57:00,51.1,37.2,29.70,ENE,65,4.0,12.0,59,0.00,,,0.00,meteohub,2015-04-26 16:57:00,
2015-04-26 13:02:00,52.0,37.2,29.70,ESE,120,3.0,12.0,57,0.00,,,0.00,meteohub,2015-04-26 17:02:00,
2015-04-26 13:07:00,51.6,36.5,29.70,ESE,102,1.0,10.0,56,0.00,,,0.00,meteohub,2015-04-26 17:07:00,
2015-04-26 13:12:00,52.0,37.2,29.69,East,93,7.0,10.0,57,0.00,,,0.00,meteohub,2015-04-26 17:12:00,
2015-04-26 13:17:00,51.6,36.9,29.69,ENE,71,5.0,10.0,57,0.00,,,0.00,meteohub,2015-04-26 17:17:00,
2015-04-26 13:22:00,51.3,36.5,29.70,ENE,78,3.0,10.0,57,0.00,,,0.00,meteohub,2015-04-26 17:22:00,
2015-04-26 13:27:00,51.1,36.3,29.70,East,92,6.0,13.0,57,0.00,,,0.00,meteohub,2015-04-26 17:27:00,
2015-04-26 13:32:00,51.4,37.2,29.70,SSW,201,6.0,13.0,58,0.00,,,0.00,meteohub,2015-04-26 17:32:00,
2015-04-26 13:37:00,51.6,36.9,29.70,East,84,7.0,13.0,57,0.00,,,0.00,meteohub,2015-04-26 17:37:00,
2015-04-26 13:42:00,52.0,37.2,29.70,ENE,65,7.0,10.0,57,0.00,,,0.00,meteohub,2015-04-26 17:42:00,
2015-04-26 13:47:00,52.0,37.2,29.69,ESE,113,7.0,9.0,57,0.00,,,0.00,meteohub,2015-04-26 17:47:00,
2015-04-26 13:52:00,52.2,36.9,29.69,ESE,105,7.0,10.0,56,0.00,,,0.00,meteohub,2015-04-26 17:52:00,
2015-04-26 13:57:00,51.8,37.0,29.69,ESE,107,5.0,10.0,57,0.00,,,0.00,meteohub,2015-04-26 17:57:00,
2015-04-26 14:02:00,52.0,36.9,29.69,ESE,121,7.0,10.0,56,0.00,,,0.00,meteohub,2015-04-26 18:02:00,
2015-04-26 14:07:00,51.6,36.9,29.69,ENE,76,4.0,11.0,57,0.00,,,0.00,meteohub,2015-04-26 18:07:00,
2015-04-26 14:12:00,52.0,37.2,29.69,ENE,75,3.0,11.0,57,0.00,,,0.00,meteohub,2015-04-26 18:12:00,
2015-04-26 14:17:00,51.4,36.3,29.69,NE,38,2.0,14.0,56,0.00,,,0.00,meteohub,2015-04-26 18:17:00,
2015-04-26 14:22:00,51.4,36.7,29.69,East,101,7.0,14.0,57,0.00,,,0.00,meteohub,2015-04-26 18:22:00,
2015-04-26 14:27:00,51.3,36.5,29.69,SE,132,4.0,14.0,57,0.00,,,0.00,meteohub,2015-04-26 18:27:00,
2015-04-26 14:32:00,51.3,36.5,29.69,East,93,1.0,10.0,57,0.00,,,0.00,meteohub,2015-04-26 18:32:00,
2015-04-26 14:37:00,51.1,36.3,29.69,ESE,103,2.0,9.0,57,0.00,,,0.00,meteohub,2015-04-26 18:37:00,
2015-04-26 14:42:00,50.7,36.5,29.69,ENE,64,2.0,10.0,58,0.00,,,0.00,meteohub,2015-04-26 18:42:00,
2015-04-26 14:47:00,51.1,36.0,29.69,ENE,70,2.0,10.0,56,0.00,,,0.00,meteohub,2015-04-26 18:47:00,
2015-04-26 14:52:00,51.3,36.5,29.69,East,93,7.0,10.0,57,0.00,,,0.00,meteohub,2015-04-26 18:52:00,
2015-04-26 14:57:00,51.4,37.2,29.69,East,96,2.0,10.0,58,0.00,,,0.00,meteohub,2015-04-26 18:57:00,
2015-04-26 15:02:00,51.3,36.1,29.69,NE,34,0.0,10.0,56,0.00,,,0.00,meteohub,2015-04-26 19:02:00,
2015-04-26 15:07:00,50.7,36.0,29.69,ENE,61,2.0,10.0,57,0.00,,,0.00,meteohub,2015-04-26 19:07:00,
2015-04-26 15:12:00,50.7,36.0,29.69,SE,128,1.0,8.0,57,0.00,,,0.00,meteohub,2015-04-26 19:12:00,
2015-04-26 15:17:00,50.5,36.0,29.68,East,80,0.0,8.0,57,0.00,,,0.00,meteohub,2015-04-26 19:17:00,
2015-04-26 15:22:00,50.5,36.3,29.68,ESE,108,3.0,6.0,58,0.00,,,0.00,meteohub,2015-04-26 19:22:00,
2015-04-26 15:27:00,50.4,35.8,29.69,East,89,1.0,6.0,57,0.00,,,0.00,meteohub,2015-04-26 19:27:00,
2015-04-26 15:32:00,50.0,35.4,29.68,ENE,63,0.0,5.0,57,0.00,,,0.00,meteohub,2015-04-26 19:32:00,
2015-04-26 15:37:00,49.8,35.2,29.69,ENE,63,0.0,5.0,57,0.00,,,0.00,meteohub,2015-04-26 19:37:00,
2015-04-26 15:42:00,50.2,36.0,29.68,ENE,63,0.0,5.0,58,0.00,,,0.00,meteohub,2015-04-26 19:42:00,
2015-04-26 15:47:00,50.4,35.8,29.68,ENE,63,0.0,3.0,57,0.00,,,0.00,meteohub,2015-04-26 19:47:00,
2015-04-26 15:52:00,50.4,36.1,29.68,NNE,13,0.0,3.0,58,0.00,,,0.00,meteohub,2015-04-26 19:52:00,
2015-04-26 15:57:00,50.5,35.1,29.68,NNE,13,0.0,3.0,55,0.00,,,0.00,meteohub,2015-04-26 19:57:00,
2015-04-26 16:02:00,50.5,38.5,29.68,SW,217,3.0,3.0,63,0.00,,,0.00,meteohub,2015-04-26 20:02:00,
2015-04-26 16:07:00,50.2,38.1,29.68,West,261,4.0,6.0,63,0.00,,,0.00,meteohub,2015-04-26 20:07:00,
2015-04-26 16:12:00,49.8,37.4,29.68,WNW,300,4.0,7.0,62,0.00,,,0.00,meteohub,2015-04-26 20:12:00,
2015-04-26 16:17:00,49.8,38.1,29.68,WSW,245,3.0,8.0,64,0.00,,,0.00,meteohub,2015-04-26 20:17:00,
2015-04-26 16:22:00,49.6,37.9,29.68,West,266,3.0,9.0,64,0.00,,,0.00,meteohub,2015-04-26 20:22:00,
2015-04-26 16:27:00,49.6,37.6,29.68,WNW,283,4.0,9.0,63,0.00,,,0.00,meteohub,2015-04-26 20:27:00,
2015-04-26 16:32:00,49.6,37.9,29.68,NW,317,3.0,9.0,64,0.00,,,0.00,meteohub,2015-04-26 20:32:00,
2015-04-26 16:37:00,49.6,37.9,29.68,WSW,248,5.0,8.0,64,0.00,,,0.00,meteohub,2015-04-26 20:37:00,
2015-04-26 16:42:00,49.6,37.9,29.68,NW,323,1.0,8.0,64,0.00,,,0.00,meteohub,2015-04-26 20:42:00,
2015-04-26 16:47:00,49.8,38.1,29.68,WNW,302,1.0,8.0,64,0.00,,,0.00,meteohub,2015-04-26 20:47:00,
2015-04-26 16:52:00,49.8,37.8,29.68,NNW,327,4.0,8.0,63,0.00,,,0.00,meteohub,2015-04-26 20:52:00,
2015-04-26 16:57:00,49.8,37.8,29.68,NW,325,3.0,7.0,63,0.00,,,0.00,meteohub,2015-04-26 20:57:00,
2015-04-26 17:02:00,49.8,37.8,29.68,NW,306,0.0,7.0,63,0.00,,,0.00,meteohub,2015-04-26 21:02:00,
2015-04-26 17:07:00,49.8,37.8,29.68,WNW,292,4.0,8.0,63,0.00,,,0.00,meteohub,2015-04-26 21:07:00,
2015-04-26 17:12:00,49.8,38.1,29.68,WNW,296,0.0,8.0,64,0.00,,,0.00,meteohub,2015-04-26 21:12:00,
2015-04-26 17:17:00,49.6,37.2,29.69,NW,315,2.0,6.0,62,0.00,,,0.00,meteohub,2015-04-26 21:17:00,
2015-04-26 17:22:00,49.6,37.6,29.68,NNW,327,1.0,8.0,63,0.00,,,0.00,meteohub,2015-04-26 21:22:00,
2015-04-26 17:27:00,49.6,37.6,29.68,NNW,327,0.0,8.0,63,0.00,,,0.00,meteohub,2015-04-26 21:27:00,
2015-04-26 17:32:00,49.5,37.4,29.68,NE,39,0.0,6.0,63,0.00,,,0.00,meteohub,2015-04-26 21:32:00,
2015-04-26 17:37:00,49.5,37.8,29.69,NW,313,4.0,4.0,64,0.00,,,0.00,meteohub,2015-04-26 21:37:00,
2015-04-26 17:42:00,49.3,37.2,29.69,NW,306,2.0,4.0,63,0.00,,,0.00,meteohub,2015-04-26 21:42:00,
2015-04-26 17:47:00,49.3,37.2,29.69,NW,306,0.0,5.0,63,0.00,,,0.00,meteohub,2015-04-26 21:47:00,
2015-04-26 17:52:00,49.3,37.6,29.69,NW,306,1.0,5.0,64,0.00,,,0.00,meteohub,2015-04-26 21:52:00,
2015-04-26 17:57:00,49.3,37.2,29.68,NW,306,1.0,5.0,63,0.00,,,0.00,meteohub,2015-04-26 21:57:00,
2015-04-26 18:02:00,49.1,37.0,29.69,NNW,327,1.0,3.0,63,0.00,,,0.00,meteohub,2015-04-26 22:02:00,
2015-04-26 18:07:00,48.9,36.9,29.68,WNW,302,4.0,6.0,63,0.00,,,0.00,meteohub,2015-04-26 22:07:00,
2015-04-26 18:12:00,48.7,36.7,29.68,WNW,293,4.0,6.0,63,0.00,,,0.00,meteohub,2015-04-26 22:12:00,
2015-04-26 18:17:00,48.6,36.5,29.68,NW,307,1.0,6.0,63,0.00,,,0.00,meteohub,2015-04-26 22:17:00,
2015-04-26 18:22:00,48.6,36.5,29.68,NW,307,1.0,6.0,63,0.00,,,0.00,meteohub,2015-04-26 22:22:00,
2015-04-26 18:27:00,48.4,36.0,29.68,NNW,327,5.0,5.0,62,0.00,,,0.00,meteohub,2015-04-26 22:27:00,
2015-04-26 18:32:00,48.4,36.3,29.68,NW,317,2.0,5.0,63,0.00,,,0.00,meteohub,2015-04-26 22:32:00,
2015-04-26 18:37:00,48.2,36.1,29.68,NW,317,2.0,5.0,63,0.00,,,0.00,meteohub,2015-04-26 22:37:00,
2015-04-26 18:42:00,48.0,36.9,29.68,NW,319,0.0,6.0,65,0.00,,,0.00,meteohub,2015-04-26 22:42:00,
2015-04-26 18:47:00,48.0,36.9,29.68,NW,314,2.0,6.0,65,0.00,,,0.00,meteohub,2015-04-26 22:47:00,
2015-04-26 18:52:00,48.0,36.9,29.68,NW,314,1.0,4.0,65,0.00,,,0.00,meteohub,2015-04-26 22:52:00,
2015-04-26 18:57:00,47.8,36.7,29.68,NW,314,2.0,4.0,65,0.00,,,0.00,meteohub,2015-04-26 22:57:00,
2015-04-26 19:02:00,47.8,37.0,29.68,WNW,299,3.0,4.0,66,0.00,,,0.00,meteohub,2015-04-26 23:02:00,
2015-04-26 19:07:00,47.7,36.9,29.68,NW,306,4.0,7.0,66,0.00,,,0.00,meteohub,2015-04-26 23:07:00,
2015-04-26 19:12:00,47.5,37.0,29.68,NW,309,2.0,7.0,67,0.00,,,0.00,meteohub,2015-04-26 23:12:00,
2015-04-26 19:17:00,47.3,36.9,29.68,WNW,303,3.0,7.0,67,0.00,,,0.00,meteohub,2015-04-26 23:17:00,
2015-04-26 19:22:00,47.1,37.0,29.68,NW,314,3.0,6.0,68,0.00,,,0.00,meteohub,2015-04-26 23:22:00,
2015-04-26 19:27:00,46.9,37.2,29.68,WNW,301,2.0,5.0,69,0.00,,,0.00,meteohub,2015-04-26 23:27:00,
2015-04-26 19:32:00,46.9,37.2,29.69,NW,311,2.0,5.0,69,0.00,,,0.00,meteohub,2015-04-26 23:32:00,
2015-04-26 19:37:00,46.8,37.2,29.69,WNW,302,3.0,6.0,69,0.00,,,0.00,meteohub,2015-04-26 23:37:00,
2015-04-26 19:42:00,46.6,37.0,29.69,West,279,3.0,6.0,69,0.00,,,0.00,meteohub,2015-04-26 23:42:00,
2015-04-26 19:47:00,46.6,37.0,29.69,WNW,292,4.0,6.0,69,0.00,,,0.00,meteohub,2015-04-26 23:47:00,
2015-04-26 19:52:00,46.4,37.2,29.69,NW,313,1.0,6.0,70,0.00,,,0.00,meteohub,2015-04-26 23:52:00,
2015-04-26 19:57:00,46.2,37.0,29.69,NNW,329,3.0,5.0,70,0.00,,,0.00,meteohub,2015-04-26 23:57:00,
2015-04-26 20:02:00,46.2,37.4,29.69,NW,306,2.0,5.0,71,0.00,,,0.00,meteohub,2015-04-27 00:02:00,
2015-04-26 20:07:00,46.2,37.4,29.69,NW,321,4.0,5.0,71,0.00,,,0.00,meteohub,2015-04-27 00:07:00,
2015-04-26 20:12:00,46.0,37.2,29.69,NW,317,2.0,5.0,71,0.00,,,0.00,meteohub,2015-04-27 00:12:00,
2015-04-26 20:17:00,46.0,37.2,29.69,NW,315,2.0,6.0,71,0.00,,,0.00,meteohub,2015-04-27 00:17:00,
2015-04-26 20:22:00,46.0,37.6,29.69,WNW,302,4.0,6.0,72,0.00,,,0.00,meteohub,2015-04-27 00:22:00,
2015-04-26 20:27:00,45.9,37.4,29.69,NW,317,3.0,6.0,72,0.00,,,0.00,meteohub,2015-04-27 00:27:00,
2015-04-26 20:32:00,45.9,37.4,29.69,WNW,300,3.0,6.0,72,0.00,,,0.00,meteohub,2015-04-27 00:32:00,
2015-04-26 20:37:00,45.9,37.8,29.69,NW,319,0.0,6.0,73,0.00,,,0.00,meteohub,2015-04-27 00:37:00,
2015-04-26 20:42:00,45.7,37.6,29.68,NW,304,1.0,6.0,73,0.00,,,0.00,meteohub,2015-04-27 00:42:00,
2015-04-26 20:47:00,45.7,37.9,29.68,NW,310,0.0,6.0,74,0.00,,,0.00,meteohub,2015-04-27 00:47:00,
2015-04-26 20:52:00,45.5,37.8,29.68,NW,310,2.0,5.0,74,0.00,,,0.00,meteohub,2015-04-27 00:52:00,
2015-04-26 20:57:00,45.5,37.8,29.68,NW,310,3.0,4.0,74,0.00,,,0.00,meteohub,2015-04-27 00:57:00,
2015-04-26 21:02:00,45.5,38.1,29.68,NW,310,2.0,4.0,75,0.00,,,0.00,meteohub,2015-04-27 01:02:00,
2015-04-26 21:07:00,45.3,37.9,29.68,NW,310,1.0,4.0,75,0.00,,,0.00,meteohub,2015-04-27 01:07:00,